createdAt,value
2023-03-07T00:00:51.370Z,0.23
2023-03-07T00:06:02.392Z,0.22
2023-03-07T00:11:09.051Z,0.18
2023-03-07T00:16:15.801Z,0.17
2023-03-07T00:21:21.906Z,0.17
2023-03-07T00:26:26.940Z,0.12
2023-03-07T00:31:32.379Z,0.12
2023-03-07T00:36:36.311Z,0.09
2023-03-07T00:41:40.626Z,0.04
2023-03-07T00:46:45.846Z,0.02
2023-03-07T00:51:49.964Z,-0.04
2023-03-07T00:56:54.161Z,-0.13
2023-03-07T01:01:59.607Z,-0.22
2023-03-07T01:07:03.875Z,-0.27
2023-03-07T01:12:08.935Z,-0.26
2023-03-07T01:17:14.406Z,-0.21
2023-03-07T01:22:18.497Z,-0.28
2023-03-07T01:27:22.861Z,-0.26
2023-03-07T01:32:28.485Z,-0.25
2023-03-07T01:37:32.980Z,-0.26
2023-03-07T01:42:38.026Z,-0.29
2023-03-07T01:47:44.583Z,-0.23
2023-03-07T01:52:50.799Z,-0.14
2023-03-07T01:57:55.835Z,-0.07
2023-03-07T02:03:08.806Z,0.02
2023-03-07T02:08:16.026Z,0.11
2023-03-07T02:13:20.182Z,0.10
2023-03-07T02:18:29.388Z,0.25
2023-03-07T02:23:39.965Z,0.32
2023-03-07T02:28:47.418Z,0.37
2023-03-07T02:33:52.401Z,0.41
2023-03-07T02:38:58.076Z,0.44
2023-03-07T02:44:05.264Z,0.51
2023-03-07T02:49:09.650Z,0.47
2023-03-07T02:54:13.976Z,0.57
2023-03-07T02:59:19.597Z,0.56
2023-03-07T03:04:23.837Z,0.61
2023-03-07T03:09:28.358Z,0.65
2023-03-07T03:14:33.733Z,0.63
2023-03-07T03:19:38.243Z,0.61
2023-03-07T03:24:43.759Z,0.68
2023-03-07T03:29:54.957Z,0.79
2023-03-07T03:34:59.383Z,0.79
2023-03-07T03:40:05.664Z,0.85
2023-03-07T03:45:12.944Z,0.78
2023-03-07T03:50:17.397Z,0.81
2023-03-07T03:55:21.601Z,0.85
2023-03-07T04:00:27.069Z,0.84
2023-03-07T04:05:33.561Z,0.82
2023-03-07T04:10:37.635Z,0.90
2023-03-07T04:15:43.748Z,0.87
2023-03-07T04:20:49.903Z,0.87
2023-03-07T04:25:56.438Z,0.92
2023-03-07T04:31:02.959Z,0.92
2023-03-07T04:36:07.342Z,0.94
2023-03-07T04:41:13.929Z,0.98
2023-03-07T04:46:20.795Z,0.99
2023-03-07T04:51:25.410Z,0.98
2023-03-07T04:56:29.924Z,1.02
2023-03-07T05:01:36.169Z,1.04
2023-03-07T05:06:41.331Z,0.95
2023-03-07T05:11:46.458Z,0.92
2023-03-07T05:16:51.977Z,0.92
2023-03-07T05:21:56.150Z,0.88
2023-03-07T05:27:00.588Z,0.87
2023-03-07T05:32:06.563Z,0.86
2023-03-07T05:37:11.644Z,0.84
2023-03-07T05:42:16.057Z,0.77
2023-03-07T05:47:22.217Z,0.73
2023-03-07T05:52:27.408Z,0.71
2023-03-07T05:57:31.602Z,0.71
2023-03-07T06:02:37.054Z,0.63
2023-03-07T06:07:41.204Z,0.69
2023-03-07T06:12:45.368Z,0.70
2023-03-07T06:17:52.728Z,0.71
2023-03-07T06:22:57.395Z,0.73
2023-03-07T06:28:01.892Z,0.72
2023-03-07T06:33:09.552Z,0.77
2023-03-07T06:38:15.234Z,0.93
2023-03-07T06:43:20.380Z,0.95
2023-03-07T06:48:26.643Z,0.99
2023-03-07T06:53:31.349Z,1.01
2023-03-07T06:58:35.891Z,1.12
2023-03-07T07:03:42.146Z,1.18
2023-03-07T07:08:46.289Z,1.26
2023-03-07T07:13:51.624Z,1.32
2023-03-07T07:18:58.625Z,1.53
2023-03-07T07:24:03.090Z,1.65
2023-03-07T07:29:07.325Z,1.81
2023-03-07T07:34:13.103Z,1.98
2023-03-07T07:39:17.747Z,2.12
2023-03-07T07:44:22.951Z,2.18
2023-03-07T07:49:33.254Z,2.26
2023-03-07T07:54:37.425Z,2.37
2023-03-07T07:59:41.835Z,2.49
2023-03-07T08:04:47.427Z,2.62
2023-03-07T08:09:51.730Z,2.72
2023-03-07T08:14:55.909Z,2.91
2023-03-07T08:20:05.015Z,3.22
2023-03-07T08:25:09.743Z,3.18
2023-03-07T08:30:14.847Z,3.35
2023-03-07T08:35:21.065Z,3.37
2023-03-07T08:40:26.189Z,3.62
2023-03-07T08:45:30.151Z,3.76
2023-03-07T08:50:35.810Z,3.84
2023-03-07T08:55:40.133Z,3.98
2023-03-07T09:00:44.249Z,4.05
2023-03-07T09:05:49.539Z,4.13
2023-03-07T09:10:54.139Z,4.34
2023-03-07T09:15:58.326Z,4.34
2023-03-07T09:21:04.797Z,4.62
2023-03-07T09:26:08.674Z,4.75
2023-03-07T09:31:14.765Z,4.77
2023-03-07T09:36:20.874Z,4.62
2023-03-07T09:41:40.592Z,4.87
2023-03-07T09:46:57.758Z,4.95
2023-03-07T09:52:04.226Z,5.01
2023-03-07T09:57:13.710Z,5.17
2023-03-07T10:02:22.428Z,5.22
2023-03-07T10:07:28.104Z,5.28
2023-03-07T10:13:02.442Z,5.77
2023-03-07T10:18:21.923Z,5.48
2023-03-07T10:23:36.067Z,5.74
2023-03-07T10:28:42.744Z,5.96
2023-03-07T10:33:49.588Z,6.40
2023-03-07T10:39:02.883Z,6.30
2023-03-07T10:44:06.913Z,6.67
2023-03-07T10:49:15.811Z,6.76
2023-03-07T10:54:23.329Z,6.79
2023-03-07T10:59:27.377Z,6.97
2023-03-07T11:04:43.373Z,7.02
2023-03-07T11:09:49.122Z,6.87
2023-03-07T11:14:54.536Z,6.89
2023-03-07T11:19:59.351Z,6.83
2023-03-07T11:25:12.052Z,6.92
2023-03-07T11:30:22.205Z,6.59
2023-03-07T11:35:33.864Z,6.42
2023-03-07T11:40:44.102Z,6.54
2023-03-07T11:45:53.310Z,6.63
2023-03-07T11:50:58.571Z,6.44
2023-03-07T11:56:21.190Z,6.30
2023-03-07T12:01:31.542Z,6.60
2023-03-07T12:06:39.903Z,6.77
2023-03-07T12:11:57.757Z,6.90
2023-03-07T12:17:08.597Z,7.08
2023-03-07T12:22:28.013Z,6.88
2023-03-07T12:27:36.130Z,6.90
2023-03-07T12:32:40.541Z,6.86
2023-03-07T12:37:48.699Z,6.85
2023-03-07T12:42:58.381Z,7.04
2023-03-07T12:48:07.036Z,7.12
2023-03-07T12:53:14.162Z,7.44
2023-03-07T12:58:27.520Z,7.33
2023-03-07T13:03:37.996Z,7.45
2023-03-07T13:08:43.380Z,7.26
2023-03-07T13:13:58.325Z,7.13
2023-03-07T13:19:35.711Z,6.81
2023-03-07T13:24:40.541Z,6.51
2023-03-07T13:30:21.568Z,6.32
2023-03-07T13:35:56.636Z,6.52
2023-03-07T13:41:01.777Z,6.52
2023-03-07T13:46:07.105Z,6.46
2023-03-07T13:51:12.633Z,6.39
2023-03-07T13:56:26.287Z,6.42
2023-03-07T14:01:33.284Z,6.36
2023-03-07T14:06:41.588Z,6.20
2023-03-07T14:11:52.786Z,6.21
2023-03-07T14:17:14.741Z,6.18
2023-03-07T14:22:29.637Z,6.03
2023-03-07T14:27:48.885Z,6.10
2023-03-07T14:32:53.118Z,6.08
2023-03-07T14:37:58.372Z,6.07
2023-03-07T14:43:16.050Z,6.12
2023-03-07T14:48:54.779Z,6.21
2023-03-07T14:54:06.249Z,6.14
2023-03-07T14:59:25.897Z,6.39
2023-03-07T15:04:33.899Z,6.36
2023-03-07T15:09:39.917Z,6.43
2023-03-07T15:14:46.429Z,6.40
2023-03-07T15:19:53.820Z,6.31
2023-03-07T15:24:59.694Z,6.16
2023-03-07T15:30:03.899Z,5.99
2023-03-07T15:35:17.961Z,6.03
2023-03-07T15:40:30.286Z,5.82
2023-03-07T15:45:36.508Z,5.83
2023-03-07T15:50:40.437Z,5.83
2023-03-07T15:55:46.754Z,5.76
2023-03-07T16:00:50.755Z,5.63
2023-03-07T16:05:56.046Z,5.62
2023-03-07T16:11:03.572Z,5.44
2023-03-07T16:16:18.002Z,5.41
2023-03-07T16:21:22.715Z,5.28
2023-03-07T16:26:29.129Z,5.19
2023-03-07T16:31:34.410Z,5.14
2023-03-07T16:36:38.352Z,5.08
2023-03-07T16:41:47.069Z,5.03
2023-03-07T16:46:53.772Z,5.01
2023-03-07T16:52:05.568Z,4.96
2023-03-07T16:57:14.883Z,4.96
2023-03-07T17:02:21.126Z,4.91
2023-03-07T17:07:26.701Z,4.90
2023-03-07T17:12:32.181Z,4.90
2023-03-07T17:17:37.569Z,4.90
2023-03-07T17:22:41.461Z,4.87
2023-03-07T17:27:49.728Z,4.83
2023-03-07T17:32:54.177Z,4.90
2023-03-07T17:37:58.162Z,4.93
2023-03-07T17:43:04.350Z,4.97
2023-03-07T17:48:08.717Z,5.01
2023-03-07T17:53:12.993Z,5.11
2023-03-07T17:58:18.473Z,5.21
2023-03-07T18:03:22.568Z,5.31
2023-03-07T18:08:28.682Z,5.37
2023-03-07T18:13:34.253Z,5.42
2023-03-07T18:18:50.599Z,5.46
2023-03-07T18:24:01.987Z,5.47
2023-03-07T18:29:07.460Z,5.41
2023-03-07T18:34:11.896Z,5.37
2023-03-07T18:39:16.006Z,5.28
2023-03-07T18:44:21.670Z,5.21
2023-03-07T18:49:25.973Z,5.16
2023-03-07T18:54:30.085Z,4.77
2023-03-07T18:59:35.563Z,4.63
2023-03-07T19:04:39.542Z,4.47
2023-03-07T19:09:45.720Z,4.43
2023-03-07T19:14:51.932Z,4.40
2023-03-07T19:19:59.222Z,4.34
2023-03-07T19:25:03.881Z,4.39
2023-03-07T19:30:12.213Z,4.36
2023-03-07T19:35:16.251Z,4.36
2023-03-07T19:40:21.856Z,4.39
2023-03-07T19:45:27.852Z,4.34
2023-03-07T19:50:32.077Z,4.34
2023-03-07T19:55:36.213Z,4.39
2023-03-07T20:00:43.342Z,4.45
2023-03-07T20:05:49.765Z,4.49
2023-03-07T20:11:08.709Z,4.53
2023-03-07T20:16:15.712Z,4.62
2023-03-07T20:21:20.675Z,4.69
2023-03-07T20:26:26.266Z,4.72
2023-03-07T20:31:33.777Z,4.74
2023-03-07T20:36:39.414Z,4.74
2023-03-07T20:41:44.004Z,4.68
2023-03-07T20:46:49.556Z,4.67
2023-03-07T20:51:54.111Z,4.63
2023-03-07T20:56:58.117Z,4.62
2023-03-07T21:02:05.741Z,4.64
2023-03-07T21:07:09.876Z,4.57
2023-03-07T21:12:14.205Z,4.52
2023-03-07T21:17:19.493Z,4.49
2023-03-07T21:22:23.757Z,4.45
2023-03-07T21:27:28.988Z,4.42
2023-03-07T21:32:34.527Z,4.36
2023-03-07T21:37:38.942Z,4.34
2023-03-07T21:42:42.897Z,4.33
2023-03-07T21:47:53.245Z,4.29
2023-03-07T21:52:57.505Z,4.23
2023-03-07T21:58:01.761Z,4.21
2023-03-07T22:03:07.706Z,4.18
2023-03-07T22:08:12.520Z,4.19
2023-03-07T22:13:16.776Z,4.16
2023-03-07T22:18:22.686Z,4.23
2023-03-07T22:23:27.260Z,4.22
2023-03-07T22:28:31.342Z,4.20
2023-03-07T22:33:36.805Z,4.23
2023-03-07T22:38:41.770Z,4.17
2023-03-07T22:43:46.092Z,4.08
2023-03-07T22:48:54.011Z,4.08
2023-03-07T22:53:58.570Z,4.10
2023-03-07T22:59:02.980Z,4.07
2023-03-07T23:04:09.773Z,4.10
2023-03-07T23:09:13.880Z,4.07
2023-03-07T23:14:18.808Z,4.03
2023-03-07T23:19:24.187Z,4.10
2023-03-07T23:24:28.407Z,3.99
2023-03-07T23:29:32.302Z,4.03
2023-03-07T23:34:37.668Z,4.01
2023-03-07T23:39:41.830Z,4.01
2023-03-07T23:44:45.832Z,3.95
2023-03-07T23:49:51.389Z,3.89
2023-03-07T23:54:55.364Z,3.90
2023-03-07T23:59:59.323Z,3.84
